sensor_id;sensor_type;location;lat;lon;timestamp;pressure;altitude;pressure_sealevel;temperature;humidity
81812;BME280;71243;51.848;5.768;2023-12-07T00:02:22;102080.19;;;1.08;90.10
81812;BME280;71243;51.848;5.768;2023-12-07T00:04:48;102077.63;;;1.07;90.27
81812;BME280;71243;51.848;5.768;2023-12-07T00:07:13;102066.56;;;1.02;89.83
81812;BME280;71243;51.848;5.768;2023-12-07T00:09:38;102084.03;;;0.98;90.11
81812;BME280;71243;51.848;5.768;2023-12-07T00:12:03;102082.66;;;0.88;91.32
81812;BME280;71243;51.848;5.768;2023-12-07T00:14:29;102089.38;;;0.94;91.16
81812;BME280;71243;51.848;5.768;2023-12-07T00:16:54;102089.50;;;0.91;92.51
81812;BME280;71243;51.848;5.768;2023-12-07T00:19:19;102094.47;;;0.97;91.92
81812;BME280;71243;51.848;5.768;2023-12-07T00:21:45;102100.59;;;0.96;92.34
81812;BME280;71243;51.848;5.768;2023-12-07T00:24:10;102099.78;;;0.94;91.89
81812;BME280;71243;51.848;5.768;2023-12-07T00:26:35;102094.59;;;0.94;91.74
81812;BME280;71243;51.848;5.768;2023-12-07T00:29:00;102099.00;;;0.92;91.65
81812;BME280;71243;51.848;5.768;2023-12-07T00:31:25;102093.78;;;0.92;91.54
81812;BME280;71243;51.848;5.768;2023-12-07T00:33:51;102099.91;;;0.91;91.20
81812;BME280;71243;51.848;5.768;2023-12-07T00:36:16;102084.31;;;0.91;91.08
81812;BME280;71243;51.848;5.768;2023-12-07T00:38:41;102088.66;;;0.90;90.70
81812;BME280;71243;51.848;5.768;2023-12-07T00:41:06;102087.84;;;0.88;90.88
81812;BME280;71243;51.848;5.768;2023-12-07T00:43:32;102091.44;;;0.86;90.60
81812;BME280;71243;51.848;5.768;2023-12-07T00:45:57;102089.84;;;0.82;90.60
81812;BME280;71243;51.848;5.768;2023-12-07T00:48:22;102079.56;;;0.79;90.25
81812;BME280;71243;51.848;5.768;2023-12-07T00:50:47;102086.91;;;0.68;90.59
81812;BME280;71243;51.848;5.768;2023-12-07T00:53:13;102084.13;;;0.72;90.52
81812;BME280;71243;51.848;5.768;2023-12-07T00:55:38;102085.91;;;0.72;90.36
81812;BME280;71243;51.848;5.768;2023-12-07T00:58:03;102092.09;;;0.68;90.84
81812;BME280;71243;51.848;5.768;2023-12-07T01:00:28;102092.03;;;0.69;90.82
81812;BME280;71243;51.848;5.768;2023-12-07T01:02:53;102098.16;;;0.68;90.85
81812;BME280;71243;51.848;5.768;2023-12-07T01:05:19;102089.63;;;0.65;90.94
81812;BME280;71243;51.848;5.768;2023-12-07T01:07:44;102099.97;;;0.66;91.46
81812;BME280;71243;51.848;5.768;2023-12-07T01:10:09;102101.69;;;0.66;91.64
81812;BME280;71243;51.848;5.768;2023-12-07T01:12:34;102093.16;;;0.62;91.74
81812;BME280;71243;51.848;5.768;2023-12-07T01:14:59;102095.66;;;0.65;91.55
81812;BME280;71243;51.848;5.768;2023-12-07T01:17:25;102091.41;;;0.63;91.76
81812;BME280;71243;51.848;5.768;2023-12-07T01:19:50;102093.28;;;0.59;91.82
81812;BME280;71243;51.848;5.768;2023-12-07T01:22:15;102095.81;;;0.61;91.80
81812;BME280;71243;51.848;5.768;2023-12-07T01:24:40;102100.16;;;0.60;91.50
81812;BME280;71243;51.848;5.768;2023-12-07T01:27:05;102098.81;;;0.50;91.63
81812;BME280;71243;51.848;5.768;2023-12-07T01:29:31;102105.59;;;0.54;91.67
81812;BME280;71243;51.848;5.768;2023-12-07T01:31:56;102106.44;;;0.55;91.71
81812;BME280;71243;51.848;5.768;2023-12-07T01:34:21;102102.50;;;0.43;91.41
81812;BME280;71243;51.848;5.768;2023-12-07T01:36:46;102103.31;;;0.45;91.58
81812;BME280;71243;51.848;5.768;2023-12-07T01:39:11;102101.47;;;0.49;91.40
81812;BME280;71243;51.848;5.768;2023-12-07T01:41:37;102103.94;;;0.52;91.32
81812;BME280;71243;51.848;5.768;2023-12-07T01:44:02;102109.09;;;0.53;91.30
81812;BME280;71243;51.848;5.768;2023-12-07T01:46:27;102117.69;;;0.55;91.38
81812;BME280;71243;51.848;5.768;2023-12-07T01:48:52;102110.78;;;0.54;91.62
81812;BME280;71243;51.848;5.768;2023-12-07T01:51:18;102117.78;;;0.52;92.16
81812;BME280;71243;51.848;5.768;2023-12-07T01:53:44;102107.28;;;0.55;92.01
81812;BME280;71243;51.848;5.768;2023-12-07T01:56:09;102110.75;;;0.56;92.00
81812;BME280;71243;51.848;5.768;2023-12-07T01:58:35;102113.22;;;0.59;92.11
81812;BME280;71243;51.848;5.768;2023-12-07T02:01:00;102113.47;;;0.53;92.25
81812;BME280;71243;51.848;5.768;2023-12-07T02:03:26;102106.47;;;0.53;92.30
81812;BME280;71243;51.848;5.768;2023-12-07T02:05:52;102111.53;;;0.58;93.00
81812;BME280;71243;51.848;5.768;2023-12-07T02:08:17;102107.13;;;0.60;93.25
81812;BME280;71243;51.848;5.768;2023-12-07T02:10:42;102119.09;;;0.64;93.87
81812;BME280;71243;51.848;5.768;2023-12-07T02:13:07;102111.31;;;0.64;94.01
81812;BME280;71243;51.848;5.768;2023-12-07T02:15:33;102117.31;;;0.66;94.55
81812;BME280;71243;51.848;5.768;2023-12-07T02:18:02;102108.66;;;0.65;95.13
81812;BME280;71243;51.848;5.768;2023-12-07T02:20:39;102109.75;;;0.60;96.74
81812;BME280;71243;51.848;5.768;2023-12-07T02:23:08;102108.69;;;0.64;96.50
81812;BME280;71243;51.848;5.768;2023-12-07T02:25:51;102108.56;;;0.68;95.93
81812;BME280;71243;51.848;5.768;2023-12-07T02:28:18;102106.75;;;0.70;95.65
81812;BME280;71243;51.848;5.768;2023-12-07T02:30:43;102102.44;;;0.69;95.04
81812;BME280;71243;51.848;5.768;2023-12-07T02:33:08;102107.50;;;0.74;94.80
81812;BME280;71243;51.848;5.768;2023-12-07T02:35:35;102087.63;;;0.71;94.63
81812;BME280;71243;51.848;5.768;2023-12-07T02:38:01;102096.19;;;0.75;94.20
81812;BME280;71243;51.848;5.768;2023-12-07T02:40:27;102104.91;;;0.72;94.43
81812;BME280;71243;51.848;5.768;2023-12-07T02:42:53;102109.25;;;0.73;94.20
81812;BME280;71243;51.848;5.768;2023-12-07T02:45:18;102105.72;;;0.74;94.23
81812;BME280;71243;51.848;5.768;2023-12-07T02:47:44;102098.66;;;0.78;94.29
81812;BME280;71243;51.848;5.768;2023-12-07T02:50:09;102095.16;;;0.79;94.45
81812;BME280;71243;51.848;5.768;2023-12-07T02:52:35;102101.25;;;0.78;94.40
81812;BME280;71243;51.848;5.768;2023-12-07T02:55:00;102096.97;;;0.77;94.49
81812;BME280;71243;51.848;5.768;2023-12-07T02:57:25;102098.72;;;0.76;94.35
81812;BME280;71243;51.848;5.768;2023-12-07T02:59:51;102089.22;;;0.75;94.54
81812;BME280;71243;51.848;5.768;2023-12-07T03:02:16;102087.56;;;0.73;95.03
81812;BME280;71243;51.848;5.768;2023-12-07T03:04:41;102093.34;;;0.58;96.46
81812;BME280;71243;51.848;5.768;2023-12-07T03:07:06;102097.34;;;0.66;95.98
81812;BME280;71243;51.848;5.768;2023-12-07T03:09:32;102092.38;;;0.60;96.08
81812;BME280;71243;51.848;5.768;2023-12-07T03:11:57;102095.09;;;0.57;95.84
81812;BME280;71243;51.848;5.768;2023-12-07T03:14:22;102094.88;;;0.63;95.39
81812;BME280;71243;51.848;5.768;2023-12-07T03:16:47;102095.66;;;0.65;95.09
81812;BME280;71243;51.848;5.768;2023-12-07T03:19:12;102098.22;;;0.67;94.90
81812;BME280;71243;51.848;5.768;2023-12-07T03:21:41;102093.00;;;0.67;94.64
81812;BME280;71243;51.848;5.768;2023-12-07T03:24:07;102103.31;;;0.70;94.60
81812;BME280;71243;51.848;5.768;2023-12-07T03:26:32;102105.97;;;0.68;94.72
81812;BME280;71243;51.848;5.768;2023-12-07T03:28:57;102089.38;;;0.71;94.67
81812;BME280;71243;51.848;5.768;2023-12-07T03:31:23;102091.09;;;0.72;94.87
81812;BME280;71243;51.848;5.768;2023-12-07T03:33:48;102092.84;;;0.71;94.87
81812;BME280;71243;51.848;5.768;2023-12-07T03:36:13;102102.28;;;0.74;95.00
81812;BME280;71243;51.848;5.768;2023-12-07T03:38:38;102105.78;;;0.73;94.74
81812;BME280;71243;51.848;5.768;2023-12-07T03:41:03;102103.31;;;0.70;95.07
81812;BME280;71243;51.848;5.768;2023-12-07T03:43:29;102107.63;;;0.69;95.33
81812;BME280;71243;51.848;5.768;2023-12-07T03:45:54;102115.44;;;0.69;95.57
81812;BME280;71243;51.848;5.768;2023-12-07T03:48:19;102108.69;;;0.64;95.79
81812;BME280;71243;51.848;5.768;2023-12-07T03:50:44;102115.09;;;0.55;96.69
81812;BME280;71243;51.848;5.768;2023-12-07T03:53:10;102121.94;;;0.58;96.58
81812;BME280;71243;51.848;5.768;2023-12-07T03:55:35;102108.03;;;0.59;96.80
81812;BME280;71243;51.848;5.768;2023-12-07T03:58:00;102112.28;;;0.61;96.67
81812;BME280;71243;51.848;5.768;2023-12-07T04:00:25;102111.53;;;0.58;96.99
81812;BME280;71243;51.848;5.768;2023-12-07T04:02:50;102124.38;;;0.62;96.77
81812;BME280;71243;51.848;5.768;2023-12-07T04:05:15;102119.47;;;0.53;97.10
81812;BME280;71243;51.848;5.768;2023-12-07T04:07:41;102126.22;;;0.59;97.00
81812;BME280;71243;51.848;5.768;2023-12-07T04:10:06;102121.13;;;0.56;96.92
81812;BME280;71243;51.848;5.768;2023-12-07T04:12:31;102125.44;;;0.57;97.23
81812;BME280;71243;51.848;5.768;2023-12-07T04:14:57;102126.34;;;0.56;97.15
81812;BME280;71243;51.848;5.768;2023-12-07T04:17:22;102123.84;;;0.53;97.39
81812;BME280;71243;51.848;5.768;2023-12-07T04:19:47;102127.28;;;0.53;97.36
81812;BME280;71243;51.848;5.768;2023-12-07T04:22:12;102127.66;;;0.43;97.77
81812;BME280;71243;51.848;5.768;2023-12-07T04:24:38;102128.13;;;0.29;98.04
81812;BME280;71243;51.848;5.768;2023-12-07T04:27:03;102141.00;;;0.32;98.24
81812;BME280;71243;51.848;5.768;2023-12-07T04:29:28;102136.88;;;0.27;98.67
81812;BME280;71243;51.848;5.768;2023-12-07T04:31:53;102135.75;;;0.34;98.80
81812;BME280;71243;51.848;5.768;2023-12-07T04:34:19;102140.94;;;0.35;98.75
81812;BME280;71243;51.848;5.768;2023-12-07T04:36:44;102142.88;;;0.29;98.81
81812;BME280;71243;51.848;5.768;2023-12-07T04:39:09;102138.81;;;0.20;98.94
81812;BME280;71243;51.848;5.768;2023-12-07T04:41:34;102140.31;;;0.27;99.29
81812;BME280;71243;51.848;5.768;2023-12-07T04:43:59;102142.78;;;0.32;98.96
81812;BME280;71243;51.848;5.768;2023-12-07T04:46:24;102146.44;;;0.26;99.16
81812;BME280;71243;51.848;5.768;2023-12-07T04:48:50;102144.88;;;0.21;99.07
81812;BME280;71243;51.848;5.768;2023-12-07T04:51:15;102143.16;;;0.20;99.08
81812;BME280;71243;51.848;5.768;2023-12-07T04:53:40;102136.44;;;0.14;99.40
81812;BME280;71243;51.848;5.768;2023-12-07T04:56:06;102135.03;;;0.04;99.54
81812;BME280;71243;51.848;5.768;2023-12-07T04:58:31;102139.41;;;0.04;99.81
81812;BME280;71243;51.848;5.768;2023-12-07T05:00:56;102142.13;;;-0.01;99.96
81812;BME280;71243;51.848;5.768;2023-12-07T05:03:21;102137.88;;;-0.04;99.59
81812;BME280;71243;51.848;5.768;2023-12-07T05:05:47;102139.41;;;0.04;99.92
81812;BME280;71243;51.848;5.768;2023-12-07T05:08:12;102137.44;;;0.10;99.55
81812;BME280;71243;51.848;5.768;2023-12-07T05:10:37;102141.78;;;0.10;99.57
81812;BME280;71243;51.848;5.768;2023-12-07T05:13:02;102142.75;;;0.07;99.64
81812;BME280;71243;51.848;5.768;2023-12-07T05:15:27;102126.34;;;0.05;99.72
81812;BME280;71243;51.848;5.768;2023-12-07T05:17:53;102129.72;;;0.09;99.48
81812;BME280;71243;51.848;5.768;2023-12-07T05:20:18;102137.75;;;0.01;99.32
81812;BME280;71243;51.848;5.768;2023-12-07T05:22:43;102137.94;;;-0.05;99.40
81812;BME280;71243;51.848;5.768;2023-12-07T05:25:08;102128.50;;;-0.08;99.69
81812;BME280;71243;51.848;5.768;2023-12-07T05:27:34;102133.81;;;-0.12;99.64
81812;BME280;71243;51.848;5.768;2023-12-07T05:29:59;102130.19;;;-0.07;99.74
81812;BME280;71243;51.848;5.768;2023-12-07T05:32:24;102131.28;;;-0.14;100.00
81812;BME280;71243;51.848;5.768;2023-12-07T05:34:49;102128.03;;;-0.20;100.00
81812;BME280;71243;51.848;5.768;2023-12-07T05:37:14;102132.59;;;-0.27;99.91
81812;BME280;71243;51.848;5.768;2023-12-07T05:39:40;102128.16;;;-0.25;100.00
81812;BME280;71243;51.848;5.768;2023-12-07T05:42:05;102124.63;;;-0.22;99.87
81812;BME280;71243;51.848;5.768;2023-12-07T05:44:30;102126.53;;;-0.27;100.00
81812;BME280;71243;51.848;5.768;2023-12-07T05:46:55;102133.22;;;-0.20;100.00
81812;BME280;71243;51.848;5.768;2023-12-07T05:49:21;102127.56;;;-0.33;100.00
81812;BME280;71243;51.848;5.768;2023-12-07T05:51:46;102124.22;;;-0.36;100.00
81812;BME280;71243;51.848;5.768;2023-12-07T05:54:11;102123.13;;;-0.29;100.00
81812;BME280;71243;51.848;5.768;2023-12-07T05:56:36;102123.28;;;-0.34;100.00
81812;BME280;71243;51.848;5.768;2023-12-07T05:59:01;102125.63;;;-0.54;100.00
81812;BME280;71243;51.848;5.768;2023-12-07T06:01:26;102129.16;;;-0.56;100.00
81812;BME280;71243;51.848;5.768;2023-12-07T06:03:52;102113.66;;;-0.58;100.00
81812;BME280;71243;51.848;5.768;2023-12-07T06:06:17;102123.00;;;-0.52;100.00
81812;BME280;71243;51.848;5.768;2023-12-07T06:08:42;102124.50;;;-0.45;100.00
81812;BME280;71243;51.848;5.768;2023-12-07T06:11:07;102118.72;;;-0.53;100.00
81812;BME280;71243;51.848;5.768;2023-12-07T06:13:32;102118.56;;;-0.49;100.00
81812;BME280;71243;51.848;5.768;2023-12-07T06:15:58;102117.81;;;-0.52;100.00
81812;BME280;71243;51.848;5.768;2023-12-07T06:18:23;102114.44;;;-0.56;100.00
81812;BME280;71243;51.848;5.768;2023-12-07T06:20:48;102117.56;;;-0.72;100.00
81812;BME280;71243;51.848;5.768;2023-12-07T06:23:13;102114.81;;;-0.68;100.00
81812;BME280;71243;51.848;5.768;2023-12-07T06:25:39;102121.44;;;-0.58;100.00
81812;BME280;71243;51.848;5.768;2023-12-07T06:28:04;102114.34;;;-0.53;100.00
81812;BME280;71243;51.848;5.768;2023-12-07T06:30:29;102120.72;;;-0.63;100.00
81812;BME280;71243;51.848;5.768;2023-12-07T06:32:54;102132.84;;;-0.63;100.00
81812;BME280;71243;51.848;5.768;2023-12-07T06:35:20;102137.97;;;-0.60;100.00
81812;BME280;71243;51.848;5.768;2023-12-07T06:37:45;102145.97;;;-0.68;100.00
81812;BME280;71243;51.848;5.768;2023-12-07T06:40:10;102140.69;;;-0.65;100.00
81812;BME280;71243;51.848;5.768;2023-12-07T06:42:36;102151.09;;;-0.66;100.00
81812;BME280;71243;51.848;5.768;2023-12-07T06:45:01;102149.28;;;-0.63;100.00
81812;BME280;71243;51.848;5.768;2023-12-07T06:47:27;102145.88;;;-0.65;100.00
81812;BME280;71243;51.848;5.768;2023-12-07T06:49:52;102143.19;;;-0.62;100.00
81812;BME280;71243;51.848;5.768;2023-12-07T06:52:17;102136.41;;;-0.66;100.00
81812;BME280;71243;51.848;5.768;2023-12-07T06:54:42;102141.44;;;-0.61;100.00
81812;BME280;71243;51.848;5.768;2023-12-07T06:57:07;102137.91;;;-0.59;100.00
81812;BME280;71243;51.848;5.768;2023-12-07T06:59:33;102137.00;;;-0.58;100.00
81812;BME280;71243;51.848;5.768;2023-12-07T07:01:58;102144.72;;;-0.56;100.00
81812;BME280;71243;51.848;5.768;2023-12-07T07:04:23;102148.09;;;-0.53;100.00
81812;BME280;71243;51.848;5.768;2023-12-07T07:06:49;102145.16;;;-0.42;100.00
81812;BME280;71243;51.848;5.768;2023-12-07T07:09:14;102147.63;;;-0.38;100.00
81812;BME280;71243;51.848;5.768;2023-12-07T07:11:39;102138.28;;;-0.43;100.00
81812;BME280;71243;51.848;5.768;2023-12-07T07:14:04;102137.63;;;-0.50;100.00
81812;BME280;71243;51.848;5.768;2023-12-07T07:16:29;102137.06;;;-0.59;100.00
81812;BME280;71243;51.848;5.768;2023-12-07T07:18:54;102133.66;;;-0.61;100.00
81812;BME280;71243;51.848;5.768;2023-12-07T07:21:20;102135.63;;;-0.69;100.00
81812;BME280;71243;51.848;5.768;2023-12-07T07:23:45;102136.03;;;-0.54;100.00
81812;BME280;71243;51.848;5.768;2023-12-07T07:26:10;102135.75;;;-0.45;100.00
81812;BME280;71243;51.848;5.768;2023-12-07T07:28:36;102142.56;;;-0.42;100.00
81812;BME280;71243;51.848;5.768;2023-12-07T07:31:01;102150.19;;;-0.36;100.00
81812;BME280;71243;51.848;5.768;2023-12-07T07:33:26;102157.03;;;-0.34;100.00
81812;BME280;71243;51.848;5.768;2023-12-07T07:35:51;102154.84;;;-0.47;100.00
81812;BME280;71243;51.848;5.768;2023-12-07T07:38:16;102156.34;;;-0.40;100.00
81812;BME280;71243;51.848;5.768;2023-12-07T07:40:41;102153.63;;;-0.36;100.00
81812;BME280;71243;51.848;5.768;2023-12-07T07:43:07;102156.31;;;-0.39;100.00
81812;BME280;71243;51.848;5.768;2023-12-07T07:45:32;102149.31;;;-0.37;100.00
81812;BME280;71243;51.848;5.768;2023-12-07T07:47:57;102144.34;;;-0.43;100.00
81812;BME280;71243;51.848;5.768;2023-12-07T07:50:22;102152.97;;;-0.42;100.00
81812;BME280;71243;51.848;5.768;2023-12-07T07:52:47;102155.53;;;-0.42;100.00
81812;BME280;71243;51.848;5.768;2023-12-07T07:55:12;102159.16;;;-0.46;100.00
81812;BME280;71243;51.848;5.768;2023-12-07T07:57:38;102158.91;;;-0.39;100.00
81812;BME280;71243;51.848;5.768;2023-12-07T08:00:03;102151.50;;;-0.51;100.00
81812;BME280;71243;51.848;5.768;2023-12-07T08:02:28;102156.19;;;-0.63;100.00
81812;BME280;71243;51.848;5.768;2023-12-07T08:04:53;102162.41;;;-0.67;100.00
81812;BME280;71243;51.848;5.768;2023-12-07T08:07:19;102173.66;;;-0.68;100.00
81812;BME280;71243;51.848;5.768;2023-12-07T08:09:44;102162.47;;;-0.70;100.00
81812;BME280;71243;51.848;5.768;2023-12-07T08:12:09;102162.47;;;-0.70;100.00
81812;BME280;71243;51.848;5.768;2023-12-07T08:14:37;102156.19;;;-0.62;100.00
81812;BME280;71243;51.848;5.768;2023-12-07T08:17:03;102159.44;;;-0.55;100.00
81812;BME280;71243;51.848;5.768;2023-12-07T08:19:29;102152.44;;;-0.53;100.00
81812;BME280;71243;51.848;5.768;2023-12-07T08:21:54;102156.78;;;-0.54;100.00
81812;BME280;71243;51.848;5.768;2023-12-07T08:24:19;102145.38;;;-0.48;100.00
81812;BME280;71243;51.848;5.768;2023-12-07T08:26:44;102143.75;;;-0.52;100.00
81812;BME280;71243;51.848;5.768;2023-12-07T08:29:09;102139.16;;;-0.43;100.00
81812;BME280;71243;51.848;5.768;2023-12-07T08:31:35;102134.88;;;-0.45;100.00
81812;BME280;71243;51.848;5.768;2023-12-07T08:34:00;102132.25;;;-0.44;100.00
81812;BME280;71243;51.848;5.768;2023-12-07T08:36:25;102142.50;;;-0.39;100.00
81812;BME280;71243;51.848;5.768;2023-12-07T08:38:51;102143.09;;;-0.31;100.00
81812;BME280;71243;51.848;5.768;2023-12-07T08:41:16;102140.72;;;-0.39;100.00
81812;BME280;71243;51.848;5.768;2023-12-07T08:43:41;102135.59;;;-0.40;100.00
81812;BME280;71243;51.848;5.768;2023-12-07T08:46:06;102132.88;;;-0.36;100.00
81812;BME280;71243;51.848;5.768;2023-12-07T08:48:31;102140.59;;;-0.34;100.00
81812;BME280;71243;51.848;5.768;2023-12-07T08:50:56;102148.16;;;-0.27;100.00
81812;BME280;71243;51.848;5.768;2023-12-07T08:53:22;102148.91;;;-0.23;100.00
81812;BME280;71243;51.848;5.768;2023-12-07T08:55:47;102159.38;;;-0.26;100.00
81812;BME280;71243;51.848;5.768;2023-12-07T08:58:12;102155.63;;;-0.18;100.00
81812;BME280;71243;51.848;5.768;2023-12-07T09:00:37;102156.44;;;-0.16;100.00
81812;BME280;71243;51.848;5.768;2023-12-07T09:03:03;102164.19;;;-0.14;100.00
81812;BME280;71243;51.848;5.768;2023-12-07T09:05:28;102149.03;;;-0.28;100.00
81812;BME280;71243;51.848;5.768;2023-12-07T09:07:53;102140.41;;;-0.28;100.00
81812;BME280;71243;51.848;5.768;2023-12-07T09:10:19;102137.81;;;-0.28;100.00
81812;BME280;71243;51.848;5.768;2023-12-07T09:12:44;102143.16;;;-0.33;100.00
81812;BME280;71243;51.848;5.768;2023-12-07T09:15:10;102148.16;;;-0.27;100.00
81812;BME280;71243;51.848;5.768;2023-12-07T09:17:35;102149.69;;;-0.21;100.00
81812;BME280;71243;51.848;5.768;2023-12-07T09:20:01;102135.13;;;-0.25;100.00
81812;BME280;71243;51.848;5.768;2023-12-07T09:22:26;102155.78;;;-0.22;100.00
81812;BME280;71243;51.848;5.768;2023-12-07T09:24:51;102146.97;;;-0.17;100.00
81812;BME280;71243;51.848;5.768;2023-12-07T09:27:16;102147.09;;;-0.21;100.00
81812;BME280;71243;51.848;5.768;2023-12-07T09:29:41;102135.66;;;-0.16;100.00
81812;BME280;71243;51.848;5.768;2023-12-07T09:32:07;102135.53;;;-0.11;100.00
81812;BME280;71243;51.848;5.768;2023-12-07T09:34:32;102127.81;;;-0.13;100.00
81812;BME280;71243;51.848;5.768;2023-12-07T09:37:09;102140.88;;;-0.16;100.00
81812;BME280;71243;51.848;5.768;2023-12-07T09:39:35;102131.03;;;-0.06;100.00
81812;BME280;71243;51.848;5.768;2023-12-07T09:42:01;102135.94;;;0.03;100.00
81812;BME280;71243;51.848;5.768;2023-12-07T09:44:27;102120.47;;;0.00;100.00
81812;BME280;71243;51.848;5.768;2023-12-07T09:46:52;102130.81;;;0.02;100.00
81812;BME280;71243;51.848;5.768;2023-12-07T09:49:17;102134.22;;;0.04;100.00
81812;BME280;71243;51.848;5.768;2023-12-07T09:51:44;102136.53;;;0.11;100.00
81812;BME280;71243;51.848;5.768;2023-12-07T09:54:11;102137.19;;;0.18;100.00
81812;BME280;71243;51.848;5.768;2023-12-07T09:56:36;102134.31;;;0.25;100.00
81812;BME280;71243;51.848;5.768;2023-12-07T09:59:02;102118.00;;;0.22;100.00
81812;BME280;71243;51.848;5.768;2023-12-07T10:01:30;102116.06;;;0.28;100.00
81812;BME280;71243;51.848;5.768;2023-12-07T10:04:21;102120.28;;;0.31;100.00
81812;BME280;71243;51.848;5.768;2023-12-07T10:06:46;102113.84;;;0.41;100.00
81812;BME280;71243;51.848;5.768;2023-12-07T10:09:12;102105.22;;;0.40;100.00
81812;BME280;71243;51.848;5.768;2023-12-07T10:11:38;102096.38;;;0.46;100.00
81812;BME280;71243;51.848;5.768;2023-12-07T10:14:05;102088.34;;;0.52;100.00
81812;BME280;71243;51.848;5.768;2023-12-07T10:16:31;102082.28;;;0.51;100.00
81812;BME280;71243;51.848;5.768;2023-12-07T10:18:56;102084.63;;;0.59;100.00
81812;BME280;71243;51.848;5.768;2023-12-07T10:21:33;102077.81;;;0.56;100.00
81812;BME280;71243;51.848;5.768;2023-12-07T10:23:58;102068.97;;;0.60;100.00
81812;BME280;71243;51.848;5.768;2023-12-07T10:26:24;102062.75;;;0.64;100.00
81812;BME280;71243;51.848;5.768;2023-12-07T10:28:50;102064.34;;;0.68;100.00
81812;BME280;71243;51.848;5.768;2023-12-07T10:31:18;102063.22;;;0.75;100.00
81812;BME280;71243;51.848;5.768;2023-12-07T10:33:48;102060.50;;;0.78;100.00
81812;BME280;71243;51.848;5.768;2023-12-07T10:36:13;102050.84;;;0.82;100.00
81812;BME280;71243;51.848;5.768;2023-12-07T10:38:38;102045.44;;;0.86;100.00
81812;BME280;71243;51.848;5.768;2023-12-07T10:41:05;102046.81;;;0.96;100.00
81812;BME280;71243;51.848;5.768;2023-12-07T10:43:32;102042.44;;;0.97;100.00
81812;BME280;71243;51.848;5.768;2023-12-07T10:45:59;102034.41;;;1.03;100.00
81812;BME280;71243;51.848;5.768;2023-12-07T10:48:25;102029.03;;;1.07;100.00
81812;BME280;71243;51.848;5.768;2023-12-07T10:50:53;102024.53;;;1.11;100.00
81812;BME280;71243;51.848;5.768;2023-12-07T10:53:27;102013.91;;;1.17;100.00
81812;BME280;71243;51.848;5.768;2023-12-07T10:56:00;102006.63;;;1.25;100.00
81812;BME280;71243;51.848;5.768;2023-12-07T10:58:25;101998.59;;;1.31;100.00
81812;BME280;71243;51.848;5.768;2023-12-07T11:00:52;102002.91;;;1.32;100.00
81812;BME280;71243;51.848;5.768;2023-12-07T11:03:18;101999.19;;;1.38;100.00
81812;BME280;71243;51.848;5.768;2023-12-07T11:05:50;101996.41;;;1.42;100.00
81812;BME280;71243;51.848;5.768;2023-12-07T11:08:23;102001.56;;;1.44;100.00
81812;BME280;71243;51.848;5.768;2023-12-07T11:13:35;101998.13;;;1.63;100.00
81812;BME280;71243;51.848;5.768;2023-12-07T11:16:00;101996.25;;;1.67;100.00
81812;BME280;71243;51.848;5.768;2023-12-07T11:18:29;101988.38;;;1.68;100.00
81812;BME280;71243;51.848;5.768;2023-12-07T11:20:55;101983.88;;;1.72;100.00
81812;BME280;71243;51.848;5.768;2023-12-07T11:23:21;101976.84;;;1.74;100.00
81812;BME280;71243;51.848;5.768;2023-12-07T11:25:47;101981.03;;;1.78;100.00
81812;BME280;71243;51.848;5.768;2023-12-07T11:28:14;101978.44;;;1.78;100.00
81812;BME280;71243;51.848;5.768;2023-12-07T11:30:43;101976.41;;;1.84;100.00
81812;BME280;71243;51.848;5.768;2023-12-07T11:33:09;101982.13;;;1.92;100.00
81812;BME280;71243;51.848;5.768;2023-12-07T11:36:07;101954.81;;;2.01;100.00
81812;BME280;71243;51.848;5.768;2023-12-07T11:38:33;101954.78;;;2.02;100.00
81812;BME280;71243;51.848;5.768;2023-12-07T11:40:59;101954.50;;;2.08;100.00
81812;BME280;71243;51.848;5.768;2023-12-07T11:45:59;101947.34;;;2.32;100.00
81812;BME280;71243;51.848;5.768;2023-12-07T11:48:25;101937.63;;;2.36;100.00
81812;BME280;71243;51.848;5.768;2023-12-07T11:53:26;101931.56;;;2.35;100.00
81812;BME280;71243;51.848;5.768;2023-12-07T11:55:52;101921.75;;;2.40;99.85
81812;BME280;71243;51.848;5.768;2023-12-07T11:58:18;101920.66;;;2.46;99.85
81812;BME280;71243;51.848;5.768;2023-12-07T12:00:44;101912.81;;;2.46;99.57
81812;BME280;71243;51.848;5.768;2023-12-07T12:03:09;101917.75;;;2.52;100.00
81812;BME280;71243;51.848;5.768;2023-12-07T12:05:34;101906.94;;;2.59;100.00
81812;BME280;71243;51.848;5.768;2023-12-07T12:07:59;101913.97;;;2.59;100.00
81812;BME280;71243;51.848;5.768;2023-12-07T12:10:24;101907.31;;;2.70;99.88
81812;BME280;71243;51.848;5.768;2023-12-07T12:12:50;101899.63;;;2.67;100.00
81812;BME280;71243;51.848;5.768;2023-12-07T12:15:15;101895.03;;;2.72;99.82
81812;BME280;71243;51.848;5.768;2023-12-07T12:17:40;101887.38;;;2.69;99.44
81812;BME280;71243;51.848;5.768;2023-12-07T12:20:06;101885.38;;;2.74;99.49
81812;BME280;71243;51.848;5.768;2023-12-07T12:22:31;101888.97;;;2.72;99.02
81812;BME280;71243;51.848;5.768;2023-12-07T12:24:56;101891.50;;;2.73;98.67
81812;BME280;71243;51.848;5.768;2023-12-07T12:27:21;101886.00;;;2.79;99.20
81812;BME280;71243;51.848;5.768;2023-12-07T12:29:47;101880.19;;;2.91;98.86
81812;BME280;71243;51.848;5.768;2023-12-07T12:32:12;101879.72;;;2.83;98.38
81812;BME280;71243;51.848;5.768;2023-12-07T12:34:38;101880.94;;;2.76;98.21
81812;BME280;71243;51.848;5.768;2023-12-07T12:37:03;101871.41;;;2.75;98.22
81812;BME280;71243;51.848;5.768;2023-12-07T12:39:29;101879.66;;;2.66;97.63
81812;BME280;71243;51.848;5.768;2023-12-07T12:41:54;101877.91;;;2.67;97.81
81812;BME280;71243;51.848;5.768;2023-12-07T12:44:20;101873.47;;;2.69;98.40
81812;BME280;71243;51.848;5.768;2023-12-07T12:46:45;101874.41;;;2.68;98.67
81812;BME280;71243;51.848;5.768;2023-12-07T12:49:10;101860.84;;;2.60;97.37
81812;BME280;71243;51.848;5.768;2023-12-07T12:51:37;101858.06;;;2.64;98.40
81812;BME280;71243;51.848;5.768;2023-12-07T12:54:03;101853.38;;;2.71;99.49